sensor_id;sensor_type;location;lat;lon;timestamp;P1;durP1;ratioP1;P2;durP2;ratioP2
56413;SDS011;42318;48.452;19.526;2022-10-26T00:07:04;1.58;;;0.82;;
56413;SDS011;42318;48.452;19.526;2022-10-26T00:14:34;2.38;;;1.38;;
56413;SDS011;42318;48.452;19.526;2022-10-26T00:22:05;2.00;;;1.20;;
56413;SDS011;42318;48.452;19.526;2022-10-26T00:29:36;2.50;;;1.20;;
56413;SDS011;42318;48.452;19.526;2022-10-26T00:37:06;2.33;;;1.05;;
56413;SDS011;42318;48.452;19.526;2022-10-26T00:44:53;3.90;;;1.20;;
56413;SDS011;42318;48.452;19.526;2022-10-26T00:52:27;2.30;;;1.00;;
56413;SDS011;42318;48.452;19.526;2022-10-26T00:59:59;2.25;;;1.10;;
56413;SDS011;42318;48.452;19.526;2022-10-26T01:07:30;2.28;;;1.00;;
56413;SDS011;42318;48.452;19.526;2022-10-26T01:15:03;2.60;;;1.10;;
56413;SDS011;42318;48.452;19.526;2022-10-26T01:46:14;2.40;;;0.90;;
56413;SDS011;42318;48.452;19.526;2022-10-26T01:53:47;1.38;;;0.70;;
56413;SDS011;42318;48.452;19.526;2022-10-26T02:16:52;1.05;;;0.75;;
56413;SDS011;42318;48.452;19.526;2022-10-26T02:24:25;1.98;;;0.95;;
56413;SDS011;42318;48.452;19.526;2022-10-26T02:31:59;1.95;;;0.90;;
56413;SDS011;42318;48.452;19.526;2022-10-26T02:39:31;1.70;;;0.90;;
56413;SDS011;42318;48.452;19.526;2022-10-26T02:47:04;1.63;;;1.00;;
56413;SDS011;42318;48.452;19.526;2022-10-26T02:54:58;1.42;;;1.05;;
56413;SDS011;42318;48.452;19.526;2022-10-26T03:02:34;1.45;;;0.75;;
56413;SDS011;42318;48.452;19.526;2022-10-26T03:10:06;1.40;;;0.70;;
56413;SDS011;42318;48.452;19.526;2022-10-26T03:17:37;1.15;;;0.90;;
56413;SDS011;42318;48.452;19.526;2022-10-26T03:25:08;1.00;;;0.70;;
56413;SDS011;42318;48.452;19.526;2022-10-26T03:32:38;1.35;;;0.80;;
56413;SDS011;42318;48.452;19.526;2022-10-26T03:40:09;1.35;;;0.85;;
56413;SDS011;42318;48.452;19.526;2022-10-26T03:47:43;1.23;;;0.75;;
56413;SDS011;42318;48.452;19.526;2022-10-26T03:55:18;1.73;;;0.93;;
56413;SDS011;42318;48.452;19.526;2022-10-26T04:02:53;1.52;;;0.95;;
56413;SDS011;42318;48.452;19.526;2022-10-26T04:10:26;1.35;;;0.80;;
56413;SDS011;42318;48.452;19.526;2022-10-26T04:17:57;1.20;;;0.85;;
56413;SDS011;42318;48.452;19.526;2022-10-26T04:25:30;1.65;;;0.68;;
56413;SDS011;42318;48.452;19.526;2022-10-26T04:33:02;2.63;;;0.83;;
56413;SDS011;42318;48.452;19.526;2022-10-26T04:40:34;1.23;;;1.00;;
56413;SDS011;42318;48.452;19.526;2022-10-26T04:48:06;1.40;;;0.80;;
56413;SDS011;42318;48.452;19.526;2022-10-26T04:55:39;2.40;;;1.08;;
56413;SDS011;42318;48.452;19.526;2022-10-26T05:03:09;1.65;;;0.93;;
56413;SDS011;42318;48.452;19.526;2022-10-26T05:10:40;1.88;;;0.90;;
56413;SDS011;42318;48.452;19.526;2022-10-26T05:18:11;1.63;;;0.85;;
56413;SDS011;42318;48.452;19.526;2022-10-26T05:25:42;1.27;;;0.50;;
56413;SDS011;42318;48.452;19.526;2022-10-26T05:33:14;0.82;;;0.50;;
56413;SDS011;42318;48.452;19.526;2022-10-26T05:40:45;1.55;;;1.15;;
56413;SDS011;42318;48.452;19.526;2022-10-26T05:48:20;1.30;;;0.80;;
56413;SDS011;42318;48.452;19.526;2022-10-26T05:55:51;1.13;;;0.73;;
56413;SDS011;42318;48.452;19.526;2022-10-26T06:10:59;1.73;;;0.60;;
56413;SDS011;42318;48.452;19.526;2022-10-26T06:18:46;1.20;;;0.60;;
56413;SDS011;42318;48.452;19.526;2022-10-26T06:26:39;2.08;;;0.90;;
56413;SDS011;42318;48.452;19.526;2022-10-26T06:34:22;2.30;;;0.73;;
56413;SDS011;42318;48.452;19.526;2022-10-26T06:42:02;1.65;;;0.80;;
56413;SDS011;42318;48.452;19.526;2022-10-26T06:49:35;1.42;;;0.68;;
56413;SDS011;42318;48.452;19.526;2022-10-26T06:57:10;2.03;;;0.70;;
56413;SDS011;42318;48.452;19.526;2022-10-26T07:04:44;2.50;;;1.20;;
56413;SDS011;42318;48.452;19.526;2022-10-26T07:12:15;1.70;;;0.88;;
56413;SDS011;42318;48.452;19.526;2022-10-26T07:19:46;2.92;;;1.23;;
56413;SDS011;42318;48.452;19.526;2022-10-26T07:27:17;2.70;;;0.90;;
56413;SDS011;42318;48.452;19.526;2022-10-26T07:34:53;1.73;;;0.75;;
56413;SDS011;42318;48.452;19.526;2022-10-26T07:42:23;2.03;;;0.80;;
56413;SDS011;42318;48.452;19.526;2022-10-26T07:49:54;9.50;;;3.17;;
56413;SDS011;42318;48.452;19.526;2022-10-26T07:57:25;17.60;;;4.90;;
56413;SDS011;42318;48.452;19.526;2022-10-26T08:04:56;12.52;;;3.97;;
56413;SDS011;42318;48.452;19.526;2022-10-26T08:12:26;9.88;;;3.60;;
56413;SDS011;42318;48.452;19.526;2022-10-26T08:19:57;13.70;;;3.85;;
56413;SDS011;42318;48.452;19.526;2022-10-26T08:27:28;11.30;;;3.58;;
56413;SDS011;42318;48.452;19.526;2022-10-26T08:34:59;11.80;;;3.55;;
56413;SDS011;42318;48.452;19.526;2022-10-26T08:42:35;12.05;;;3.25;;
56413;SDS011;42318;48.452;19.526;2022-10-26T08:50:13;7.70;;;3.20;;
56413;SDS011;42318;48.452;19.526;2022-10-26T08:57:48;9.18;;;3.00;;
56413;SDS011;42318;48.452;19.526;2022-10-26T09:05:22;12.65;;;3.15;;
56413;SDS011;42318;48.452;19.526;2022-10-26T09:20:56;9.68;;;2.75;;
56413;SDS011;42318;48.452;19.526;2022-10-26T09:28:42;6.63;;;2.60;;
56413;SDS011;42318;48.452;19.526;2022-10-26T09:36:19;7.88;;;3.05;;
56413;SDS011;42318;48.452;19.526;2022-10-26T09:51:46;8.48;;;2.53;;
56413;SDS011;42318;48.452;19.526;2022-10-26T09:59:18;6.03;;;1.80;;
56413;SDS011;42318;48.452;19.526;2022-10-26T10:14:31;7.53;;;2.72;;
56413;SDS011;42318;48.452;19.526;2022-10-26T10:22:11;7.95;;;2.25;;
56413;SDS011;42318;48.452;19.526;2022-10-26T10:29:49;5.68;;;2.80;;
56413;SDS011;42318;48.452;19.526;2022-10-26T10:37:23;6.47;;;2.00;;
56413;SDS011;42318;48.452;19.526;2022-10-26T10:44:58;8.70;;;2.47;;
56413;SDS011;42318;48.452;19.526;2022-10-26T10:52:30;7.10;;;2.60;;
56413;SDS011;42318;48.452;19.526;2022-10-26T11:00:04;5.85;;;2.03;;
56413;SDS011;42318;48.452;19.526;2022-10-26T11:15:49;5.75;;;2.03;;
56413;SDS011;42318;48.452;19.526;2022-10-26T11:23:31;9.15;;;2.10;;
56413;SDS011;42318;48.452;19.526;2022-10-26T11:31:12;6.53;;;1.80;;
56413;SDS011;42318;48.452;19.526;2022-10-26T11:46:30;6.68;;;2.33;;
56413;SDS011;42318;48.452;19.526;2022-10-26T11:54:14;5.97;;;2.45;;
56413;SDS011;42318;48.452;19.526;2022-10-26T12:02:13;4.32;;;1.98;;
56413;SDS011;42318;48.452;19.526;2022-10-26T12:09:47;3.35;;;1.90;;
56413;SDS011;42318;48.452;19.526;2022-10-26T12:48:00;5.85;;;2.03;;
56413;SDS011;42318;48.452;19.526;2022-10-26T12:55:40;6.40;;;1.75;;
56413;SDS011;42318;48.452;19.526;2022-10-26T13:18:35;4.88;;;1.70;;
56413;SDS011;42318;48.452;19.526;2022-10-26T13:26:16;4.57;;;1.85;;
56413;SDS011;42318;48.452;19.526;2022-10-26T13:33:49;3.67;;;1.42;;
56413;SDS011;42318;48.452;19.526;2022-10-26T13:41:26;4.38;;;2.28;;
56413;SDS011;42318;48.452;19.526;2022-10-26T13:49:04;5.72;;;1.73;;
56413;SDS011;42318;48.452;19.526;2022-10-26T13:56:44;5.30;;;1.90;;
56413;SDS011;42318;48.452;19.526;2022-10-26T14:04:26;3.83;;;1.35;;
56413;SDS011;42318;48.452;19.526;2022-10-26T14:11:58;4.90;;;2.00;;
56413;SDS011;42318;48.452;19.526;2022-10-26T14:27:19;3.63;;;1.42;;
56413;SDS011;42318;48.452;19.526;2022-10-26T14:34:51;2.88;;;1.52;;
56413;SDS011;42318;48.452;19.526;2022-10-26T14:42:29;3.17;;;1.80;;
56413;SDS011;42318;48.452;19.526;2022-10-26T14:50:03;3.45;;;1.52;;
56413;SDS011;42318;48.452;19.526;2022-10-26T14:57:34;3.05;;;1.48;;
56413;SDS011;42318;48.452;19.526;2022-10-26T15:13:07;3.03;;;1.70;;
56413;SDS011;42318;48.452;19.526;2022-10-26T15:20:54;3.33;;;1.50;;
56413;SDS011;42318;48.452;19.526;2022-10-26T15:36:15;3.00;;;1.40;;
56413;SDS011;42318;48.452;19.526;2022-10-26T15:43:48;3.53;;;1.20;;
56413;SDS011;42318;48.452;19.526;2022-10-26T15:51:20;2.70;;;1.48;;
56413;SDS011;42318;48.452;19.526;2022-10-26T15:58:51;3.50;;;1.80;;
56413;SDS011;42318;48.452;19.526;2022-10-26T16:14:04;3.47;;;1.58;;
56413;SDS011;42318;48.452;19.526;2022-10-26T16:21:35;3.80;;;1.60;;
56413;SDS011;42318;48.452;19.526;2022-10-26T16:29:06;2.90;;;1.50;;
56413;SDS011;42318;48.452;19.526;2022-10-26T16:36:36;3.58;;;1.63;;
56413;SDS011;42318;48.452;19.526;2022-10-26T16:44:10;2.97;;;1.73;;
56413;SDS011;42318;48.452;19.526;2022-10-26T16:51:42;3.17;;;1.75;;
56413;SDS011;42318;48.452;19.526;2022-10-26T16:59:12;3.25;;;1.50;;
56413;SDS011;42318;48.452;19.526;2022-10-26T17:06:43;3.47;;;1.40;;
56413;SDS011;42318;48.452;19.526;2022-10-26T17:14:14;2.70;;;1.45;;
56413;SDS011;42318;48.452;19.526;2022-10-26T17:21:44;2.13;;;1.20;;
56413;SDS011;42318;48.452;19.526;2022-10-26T17:29:15;3.65;;;1.42;;
56413;SDS011;42318;48.452;19.526;2022-10-26T17:36:46;2.17;;;1.23;;
56413;SDS011;42318;48.452;19.526;2022-10-26T17:44:17;2.88;;;1.58;;
56413;SDS011;42318;48.452;19.526;2022-10-26T17:51:47;3.03;;;1.30;;
56413;SDS011;42318;48.452;19.526;2022-10-26T17:59:18;2.22;;;1.17;;
56413;SDS011;42318;48.452;19.526;2022-10-26T18:06:49;3.97;;;1.60;;
56413;SDS011;42318;48.452;19.526;2022-10-26T18:14:19;3.03;;;1.50;;
56413;SDS011;42318;48.452;19.526;2022-10-26T18:21:51;3.05;;;1.48;;
56413;SDS011;42318;48.452;19.526;2022-10-26T18:29:21;2.25;;;1.30;;
56413;SDS011;42318;48.452;19.526;2022-10-26T18:36:52;2.33;;;1.13;;
56413;SDS011;42318;48.452;19.526;2022-10-26T18:44:23;2.00;;;1.30;;
56413;SDS011;42318;48.452;19.526;2022-10-26T18:51:54;3.05;;;1.33;;
56413;SDS011;42318;48.452;19.526;2022-10-26T18:59:25;3.35;;;1.25;;
56413;SDS011;42318;48.452;19.526;2022-10-26T19:06:56;2.83;;;1.30;;
56413;SDS011;42318;48.452;19.526;2022-10-26T19:14:27;2.70;;;1.20;;
56413;SDS011;42318;48.452;19.526;2022-10-26T19:21:58;3.28;;;1.50;;
56413;SDS011;42318;48.452;19.526;2022-10-26T19:29:29;2.83;;;1.43;;
56413;SDS011;42318;48.452;19.526;2022-10-26T19:37:00;2.10;;;1.15;;
56413;SDS011;42318;48.452;19.526;2022-10-26T19:44:31;2.17;;;1.10;;
56413;SDS011;42318;48.452;19.526;2022-10-26T19:52:01;1.80;;;0.98;;
56413;SDS011;42318;48.452;19.526;2022-10-26T19:59:32;3.38;;;1.42;;
56413;SDS011;42318;48.452;19.526;2022-10-26T20:07:03;3.80;;;1.67;;
56413;SDS011;42318;48.452;19.526;2022-10-26T20:14:33;1.83;;;1.10;;
56413;SDS011;42318;48.452;19.526;2022-10-26T20:22:04;2.38;;;1.55;;
56413;SDS011;42318;48.452;19.526;2022-10-26T20:29:35;2.13;;;1.60;;
56413;SDS011;42318;48.452;19.526;2022-10-26T20:37:05;2.65;;;1.45;;
56413;SDS011;42318;48.452;19.526;2022-10-26T20:44:38;2.40;;;1.35;;
56413;SDS011;42318;48.452;19.526;2022-10-26T20:52:13;2.05;;;1.45;;
56413;SDS011;42318;48.452;19.526;2022-10-26T20:59:49;1.85;;;1.13;;
56413;SDS011;42318;48.452;19.526;2022-10-26T21:07:22;2.60;;;1.35;;
56413;SDS011;42318;48.452;19.526;2022-10-26T21:14:53;1.60;;;0.95;;
56413;SDS011;42318;48.452;19.526;2022-10-26T21:22:24;2.20;;;1.23;;
56413;SDS011;42318;48.452;19.526;2022-10-26T21:29:54;2.50;;;1.50;;
56413;SDS011;42318;48.452;19.526;2022-10-26T21:37:25;3.45;;;1.42;;
56413;SDS011;42318;48.452;19.526;2022-10-26T21:44:56;2.47;;;1.08;;
56413;SDS011;42318;48.452;19.526;2022-10-26T21:52:27;1.60;;;1.10;;
56413;SDS011;42318;48.452;19.526;2022-10-26T21:59:58;3.13;;;1.38;;
56413;SDS011;42318;48.452;19.526;2022-10-26T22:07:28;1.90;;;1.38;;
56413;SDS011;42318;48.452;19.526;2022-10-26T22:14:59;2.53;;;1.48;;
56413;SDS011;42318;48.452;19.526;2022-10-26T22:22:30;1.85;;;1.13;;
56413;SDS011;42318;48.452;19.526;2022-10-26T22:30:00;2.08;;;1.25;;
56413;SDS011;42318;48.452;19.526;2022-10-26T22:37:31;2.55;;;1.42;;
56413;SDS011;42318;48.452;19.526;2022-10-26T22:45:01;2.58;;;1.27;;
56413;SDS011;42318;48.452;19.526;2022-10-26T22:52:33;2.45;;;1.52;;
56413;SDS011;42318;48.452;19.526;2022-10-26T23:00:04;2.45;;;1.30;;
56413;SDS011;42318;48.452;19.526;2022-10-26T23:07:35;1.85;;;1.17;;
56413;SDS011;42318;48.452;19.526;2022-10-26T23:15:06;2.13;;;1.30;;
56413;SDS011;42318;48.452;19.526;2022-10-26T23:22:37;2.33;;;1.27;;
56413;SDS011;42318;48.452;19.526;2022-10-26T23:30:08;2.58;;;1.52;;
56413;SDS011;42318;48.452;19.526;2022-10-26T23:37:39;2.33;;;1.40;;
56413;SDS011;42318;48.452;19.526;2022-10-26T23:45:10;2.72;;;1.58;;
56413;SDS011;42318;48.452;19.526;2022-10-26T23:52:44;2.17;;;1.33;;
